sensor_id;sensor_type;location;lat;lon;timestamp;pressure;altitude;pressure_sealevel;temperature;humidity
61035;BME280;46916;40.564;-7.958;2023-02-16T00:01:23;98444.41;;;11.30;56.92
61035;BME280;46916;40.564;-7.958;2023-02-16T00:03:24;98444.19;;;11.33;56.81
61035;BME280;46916;40.564;-7.958;2023-02-16T00:05:33;98443.97;;;11.36;56.80
61035;BME280;46916;40.564;-7.958;2023-02-16T00:07:34;98442.06;;;11.38;56.52
61035;BME280;46916;40.564;-7.958;2023-02-16T00:09:34;98437.66;;;11.38;56.39
61035;BME280;46916;40.564;-7.958;2023-02-16T00:11:35;98440.06;;;11.41;56.79
61035;BME280;46916;40.564;-7.958;2023-02-16T00:13:54;98439.03;;;11.44;56.34
61035;BME280;46916;40.564;-7.958;2023-02-16T00:15:55;98438.28;;;11.42;56.35
61035;BME280;46916;40.564;-7.958;2023-02-16T00:17:57;98441.84;;;11.41;56.51
61035;BME280;46916;40.564;-7.958;2023-02-16T00:19:59;98442.53;;;11.32;56.76
61035;BME280;46916;40.564;-7.958;2023-02-16T00:22:00;98442.72;;;11.29;57.09
61035;BME280;46916;40.564;-7.958;2023-02-16T00:24:01;98444.53;;;11.28;57.21
61035;BME280;46916;40.564;-7.958;2023-02-16T00:26:01;98445.81;;;11.23;56.96
61035;BME280;46916;40.564;-7.958;2023-02-16T00:28:06;98447.69;;;11.21;56.93
61035;BME280;46916;40.564;-7.958;2023-02-16T00:30:19;98446.72;;;11.22;57.07
61035;BME280;46916;40.564;-7.958;2023-02-16T00:32:22;98450.44;;;11.19;57.11
61035;BME280;46916;40.564;-7.958;2023-02-16T00:34:36;98451.16;;;11.21;57.08
61035;BME280;46916;40.564;-7.958;2023-02-16T00:36:37;98450.31;;;11.21;57.39
61035;BME280;46916;40.564;-7.958;2023-02-16T00:38:38;98450.09;;;11.24;57.20
61035;BME280;46916;40.564;-7.958;2023-02-16T00:40:39;98445.28;;;11.18;57.11
61035;BME280;46916;40.564;-7.958;2023-02-16T00:42:43;98443.09;;;11.11;57.15
61035;BME280;46916;40.564;-7.958;2023-02-16T00:44:50;98441.72;;;11.06;57.35
61035;BME280;46916;40.564;-7.958;2023-02-16T00:46:51;98442.28;;;10.98;57.47
61035;BME280;46916;40.564;-7.958;2023-02-16T00:48:52;98448.59;;;10.96;57.65
61035;BME280;46916;40.564;-7.958;2023-02-16T00:50:52;98438.81;;;10.98;57.91
61035;BME280;46916;40.564;-7.958;2023-02-16T00:52:53;98434.81;;;11.05;57.38
61035;BME280;46916;40.564;-7.958;2023-02-16T00:54:57;98436.72;;;11.03;57.62
61035;BME280;46916;40.564;-7.958;2023-02-16T00:56:58;98444.59;;;11.03;57.81
61035;BME280;46916;40.564;-7.958;2023-02-16T00:58:59;98439.22;;;11.04;57.73
61035;BME280;46916;40.564;-7.958;2023-02-16T01:01:09;98440.69;;;11.08;57.67
61035;BME280;46916;40.564;-7.958;2023-02-16T01:03:15;98440.56;;;11.10;57.67
61035;BME280;46916;40.564;-7.958;2023-02-16T01:05:17;98438.69;;;11.12;57.33
61035;BME280;46916;40.564;-7.958;2023-02-16T01:07:19;98445.81;;;11.10;57.58
61035;BME280;46916;40.564;-7.958;2023-02-16T01:09:38;98434.50;;;11.09;57.30
61035;BME280;46916;40.564;-7.958;2023-02-16T01:11:59;98444.47;;;11.04;57.81
61035;BME280;46916;40.564;-7.958;2023-02-16T01:14:00;98436.09;;;10.99;57.89
61035;BME280;46916;40.564;-7.958;2023-02-16T01:16:01;98437.97;;;10.97;58.02
61035;BME280;46916;40.564;-7.958;2023-02-16T01:18:04;98432.44;;;10.89;58.08
61035;BME280;46916;40.564;-7.958;2023-02-16T01:20:18;98434.53;;;10.84;58.04
61035;BME280;46916;40.564;-7.958;2023-02-16T01:22:19;98433.19;;;10.78;58.45
61035;BME280;46916;40.564;-7.958;2023-02-16T01:24:20;98428.38;;;10.72;58.54
61035;BME280;46916;40.564;-7.958;2023-02-16T01:26:21;98424.41;;;10.66;58.98
61035;BME280;46916;40.564;-7.958;2023-02-16T01:28:24;98420.72;;;10.56;59.28
61035;BME280;46916;40.564;-7.958;2023-02-16T01:30:25;98419.81;;;10.57;59.30
61035;BME280;46916;40.564;-7.958;2023-02-16T01:32:25;98420.22;;;10.51;59.16
61035;BME280;46916;40.564;-7.958;2023-02-16T01:34:26;98425.88;;;10.45;59.34
61035;BME280;46916;40.564;-7.958;2023-02-16T01:36:35;98429.66;;;10.41;59.73
61035;BME280;46916;40.564;-7.958;2023-02-16T01:38:36;98433.44;;;10.37;59.95
61035;BME280;46916;40.564;-7.958;2023-02-16T01:40:41;98434.78;;;10.30;59.84
61035;BME280;46916;40.564;-7.958;2023-02-16T01:42:50;98432.88;;;10.32;59.97
61035;BME280;46916;40.564;-7.958;2023-02-16T01:44:58;98442.63;;;10.30;60.25
61035;BME280;46916;40.564;-7.958;2023-02-16T01:49:13;98438.81;;;10.21;60.73
61035;BME280;46916;40.564;-7.958;2023-02-16T01:51:32;98435.56;;;10.17;60.28
61035;BME280;46916;40.564;-7.958;2023-02-16T01:55:44;98438.00;;;10.21;60.31
61035;BME280;46916;40.564;-7.958;2023-02-16T01:57:50;98434.63;;;10.18;60.85
61035;BME280;46916;40.564;-7.958;2023-02-16T02:02:01;98430.97;;;10.21;60.25
61035;BME280;46916;40.564;-7.958;2023-02-16T02:04:48;98435.94;;;10.26;60.39
61035;BME280;46916;40.564;-7.958;2023-02-16T02:07:24;98423.34;;;10.31;60.11
61035;BME280;46916;40.564;-7.958;2023-02-16T02:09:34;98424.09;;;10.33;60.18
61035;BME280;46916;40.564;-7.958;2023-02-16T02:11:44;98421.16;;;10.37;60.13
61035;BME280;46916;40.564;-7.958;2023-02-16T02:13:52;98417.78;;;10.48;59.40
61035;BME280;46916;40.564;-7.958;2023-02-16T02:15:57;98412.78;;;10.45;59.53
61035;BME280;46916;40.564;-7.958;2023-02-16T02:18:00;98412.03;;;10.43;59.45
61035;BME280;46916;40.564;-7.958;2023-02-16T02:36:52;98413.47;;;10.09;60.28
61035;BME280;46916;40.564;-7.958;2023-02-16T02:39:03;98412.63;;;10.08;60.16
61035;BME280;46916;40.564;-7.958;2023-02-16T02:43:55;98407.47;;;10.07;60.15
61035;BME280;46916;40.564;-7.958;2023-02-16T02:46:30;98406.66;;;10.06;60.33
61035;BME280;46916;40.564;-7.958;2023-02-16T02:48:33;98418.59;;;10.10;60.04
61035;BME280;46916;40.564;-7.958;2023-02-16T02:52:38;98419.88;;;10.17;60.05
61035;BME280;46916;40.564;-7.958;2023-02-16T02:54:39;98421.53;;;10.18;60.25
61035;BME280;46916;40.564;-7.958;2023-02-16T02:58:00;98425.81;;;10.20;60.05
61035;BME280;46916;40.564;-7.958;2023-02-16T02:59:53;98430.97;;;10.21;60.10
61035;BME280;46916;40.564;-7.958;2023-02-16T03:02:16;98429.03;;;10.25;60.16
61035;BME280;46916;40.564;-7.958;2023-02-16T03:04:20;98421.69;;;10.30;60.15
61035;BME280;46916;40.564;-7.958;2023-02-16T03:06:25;98430.81;;;10.37;59.90
61035;BME280;46916;40.564;-7.958;2023-02-16T03:08:29;98434.34;;;10.36;59.50
61035;BME280;46916;40.564;-7.958;2023-02-16T03:10:34;98442.19;;;10.36;59.50
61035;BME280;46916;40.564;-7.958;2023-02-16T03:12:55;98441.38;;;10.35;59.69
61035;BME280;46916;40.564;-7.958;2023-02-16T03:14:58;98432.78;;;10.33;59.62
61035;BME280;46916;40.564;-7.958;2023-02-16T03:17:06;98437.19;;;10.33;59.67
61035;BME280;46916;40.564;-7.958;2023-02-16T03:19:26;98432.88;;;10.32;59.47
61035;BME280;46916;40.564;-7.958;2023-02-16T03:21:45;98422.31;;;10.33;59.77
61035;BME280;46916;40.564;-7.958;2023-02-16T03:24:07;98430.50;;;10.29;59.55
61035;BME280;46916;40.564;-7.958;2023-02-16T03:26:28;98425.44;;;10.26;59.56
61035;BME280;46916;40.564;-7.958;2023-02-16T03:28:48;98424.78;;;10.22;59.57
61035;BME280;46916;40.564;-7.958;2023-02-16T03:31:11;98417.97;;;10.20;59.96
61035;BME280;46916;40.564;-7.958;2023-02-16T03:33:14;98417.63;;;10.11;59.76
61035;BME280;46916;40.564;-7.958;2023-02-16T03:35:15;98420.38;;;10.10;60.12
61035;BME280;46916;40.564;-7.958;2023-02-16T03:37:16;98418.16;;;10.04;60.25
61035;BME280;46916;40.564;-7.958;2023-02-16T03:39:17;98415.84;;;9.99;60.02
61035;BME280;46916;40.564;-7.958;2023-02-16T03:41:19;98419.91;;;9.90;60.47
61035;BME280;46916;40.564;-7.958;2023-02-16T03:43:23;98420.41;;;9.83;60.70
61035;BME280;46916;40.564;-7.958;2023-02-16T03:45:25;98422.31;;;9.81;60.60
61035;BME280;46916;40.564;-7.958;2023-02-16T03:47:26;98421.78;;;9.76;60.78
61035;BME280;46916;40.564;-7.958;2023-02-16T03:49:26;98420.28;;;9.72;61.27
61035;BME280;46916;40.564;-7.958;2023-02-16T03:51:27;98416.09;;;9.69;61.18
61035;BME280;46916;40.564;-7.958;2023-02-16T03:53:27;98417.75;;;9.70;61.21
61035;BME280;46916;40.564;-7.958;2023-02-16T03:55:28;98417.75;;;9.70;61.16
61035;BME280;46916;40.564;-7.958;2023-02-16T03:57:29;98420.91;;;9.75;61.01
61035;BME280;46916;40.564;-7.958;2023-02-16T03:59:29;98413.19;;;9.74;61.10
61035;BME280;46916;40.564;-7.958;2023-02-16T04:01:30;98421.84;;;9.74;61.13
61035;BME280;46916;40.564;-7.958;2023-02-16T04:03:31;98414.84;;;9.75;61.24
61035;BME280;46916;40.564;-7.958;2023-02-16T04:05:32;98412.97;;;9.77;60.78
61035;BME280;46916;40.564;-7.958;2023-02-16T04:07:33;98413.38;;;9.71;61.25
61035;BME280;46916;40.564;-7.958;2023-02-16T04:09:33;98415.16;;;9.70;61.37
61035;BME280;46916;40.564;-7.958;2023-02-16T04:11:34;98412.66;;;9.68;61.21
61035;BME280;46916;40.564;-7.958;2023-02-16T04:13:53;98415.25;;;9.68;61.33
61035;BME280;46916;40.564;-7.958;2023-02-16T04:15:54;98414.50;;;9.66;61.32
61035;BME280;46916;40.564;-7.958;2023-02-16T04:17:55;98413.47;;;9.69;61.16
61035;BME280;46916;40.564;-7.958;2023-02-16T04:19:56;98414.97;;;9.73;60.97
61035;BME280;46916;40.564;-7.958;2023-02-16T04:21:56;98412.44;;;9.72;61.02
61035;BME280;46916;40.564;-7.958;2023-02-16T04:23:57;98413.94;;;9.76;61.21
61035;BME280;46916;40.564;-7.958;2023-02-16T04:25:58;98412.97;;;9.77;61.18
61035;BME280;46916;40.564;-7.958;2023-02-16T04:27:59;98412.78;;;9.80;60.98
61035;BME280;46916;40.564;-7.958;2023-02-16T04:29:59;98416.25;;;9.80;61.14
61035;BME280;46916;40.564;-7.958;2023-02-16T04:32:00;98416.88;;;9.84;60.92
61035;BME280;46916;40.564;-7.958;2023-02-16T04:34:01;98415.94;;;9.85;60.91
61035;BME280;46916;40.564;-7.958;2023-02-16T04:36:01;98422.53;;;9.90;60.82
61035;BME280;46916;40.564;-7.958;2023-02-16T04:38:02;98419.72;;;9.93;60.40
61035;BME280;46916;40.564;-7.958;2023-02-16T04:40:05;98418.13;;;9.91;60.29
61035;BME280;46916;40.564;-7.958;2023-02-16T04:42:06;98424.31;;;9.90;60.36
61035;BME280;46916;40.564;-7.958;2023-02-16T04:44:07;98425.25;;;9.89;60.76
61035;BME280;46916;40.564;-7.958;2023-02-16T04:46:07;98419.91;;;9.90;60.49
61035;BME280;46916;40.564;-7.958;2023-02-16T04:48:08;98419.72;;;9.93;60.28
61035;BME280;46916;40.564;-7.958;2023-02-16T04:50:09;98421.56;;;9.91;60.14
61035;BME280;46916;40.564;-7.958;2023-02-16T04:52:11;98419.91;;;9.90;60.15
61035;BME280;46916;40.564;-7.958;2023-02-16T04:54:12;98429.53;;;9.90;60.41
61035;BME280;46916;40.564;-7.958;2023-02-16T04:56:13;98423.47;;;9.89;60.25
61035;BME280;46916;40.564;-7.958;2023-02-16T04:58:15;98427.22;;;9.85;60.55
61035;BME280;46916;40.564;-7.958;2023-02-16T05:00:16;98423.13;;;9.81;60.35
61035;BME280;46916;40.564;-7.958;2023-02-16T05:02:17;98428.38;;;9.81;60.76
61035;BME280;46916;40.564;-7.958;2023-02-16T05:04:18;98420.63;;;9.80;60.69
61035;BME280;46916;40.564;-7.958;2023-02-16T05:06:19;98422.13;;;9.84;60.69
61035;BME280;46916;40.564;-7.958;2023-02-16T05:08:20;98429.50;;;9.77;60.46
61035;BME280;46916;40.564;-7.958;2023-02-16T05:10:20;98427.09;;;9.74;60.64
61035;BME280;46916;40.564;-7.958;2023-02-16T05:12:21;98432.25;;;9.76;60.76
61035;BME280;46916;40.564;-7.958;2023-02-16T05:14:40;98431.34;;;9.62;60.77
61035;BME280;46916;40.564;-7.958;2023-02-16T05:16:41;98431.94;;;9.53;61.49
61035;BME280;46916;40.564;-7.958;2023-02-16T05:18:42;98436.28;;;9.40;61.71
61035;BME280;46916;40.564;-7.958;2023-02-16T05:20:42;98433.50;;;9.29;62.00
61035;BME280;46916;40.564;-7.958;2023-02-16T05:23:02;98437.06;;;9.13;62.68
61035;BME280;46916;40.564;-7.958;2023-02-16T05:25:02;98434.69;;;9.10;62.85
61035;BME280;46916;40.564;-7.958;2023-02-16T05:27:06;98433.38;;;9.03;63.07
61035;BME280;46916;40.564;-7.958;2023-02-16T05:29:07;98435.22;;;9.01;63.02
61035;BME280;46916;40.564;-7.958;2023-02-16T05:31:08;98443.00;;;8.88;63.33
61035;BME280;46916;40.564;-7.958;2023-02-16T05:33:08;98435.72;;;8.79;63.71
61035;BME280;46916;40.564;-7.958;2023-02-16T05:35:09;98436.94;;;8.74;63.99
61035;BME280;46916;40.564;-7.958;2023-02-16T05:37:11;98443.28;;;8.70;64.03
61035;BME280;46916;40.564;-7.958;2023-02-16T05:39:12;98431.16;;;8.68;64.36
61035;BME280;46916;40.564;-7.958;2023-02-16T05:41:12;98434.59;;;8.69;64.32
61035;BME280;46916;40.564;-7.958;2023-02-16T05:43:22;98428.25;;;8.73;64.25
61035;BME280;46916;40.564;-7.958;2023-02-16T05:45:23;98424.63;;;8.76;64.17
61035;BME280;46916;40.564;-7.958;2023-02-16T05:47:24;98435.25;;;8.73;64.32
61035;BME280;46916;40.564;-7.958;2023-02-16T05:49:24;98438.91;;;8.70;64.53
61035;BME280;46916;40.564;-7.958;2023-02-16T05:51:25;98437.50;;;8.64;64.37
61035;BME280;46916;40.564;-7.958;2023-02-16T05:53:26;98443.75;;;8.62;64.47
61035;BME280;46916;40.564;-7.958;2023-02-16T05:55:27;98440.50;;;8.58;64.88
61035;BME280;46916;40.564;-7.958;2023-02-16T05:57:28;98436.28;;;8.56;64.96
61035;BME280;46916;40.564;-7.958;2023-02-16T05:59:29;98450.16;;;8.56;65.12
61035;BME280;46916;40.564;-7.958;2023-02-16T06:01:30;98443.75;;;8.62;64.87
61035;BME280;46916;40.564;-7.958;2023-02-16T06:03:30;98449.25;;;8.72;64.60
61035;BME280;46916;40.564;-7.958;2023-02-16T06:05:31;98442.72;;;8.79;64.40
61035;BME280;46916;40.564;-7.958;2023-02-16T06:07:32;98447.66;;;8.83;64.30
61035;BME280;46916;40.564;-7.958;2023-02-16T06:09:33;98454.56;;;8.84;64.24
61035;BME280;46916;40.564;-7.958;2023-02-16T06:11:33;98450.94;;;8.87;64.00
61035;BME280;46916;40.564;-7.958;2023-02-16T06:13:37;98455.97;;;8.90;63.85
61035;BME280;46916;40.564;-7.958;2023-02-16T06:15:37;98454.47;;;9.00;63.76
61035;BME280;46916;40.564;-7.958;2023-02-16T06:17:38;98457.25;;;9.11;63.52
61035;BME280;46916;40.564;-7.958;2023-02-16T06:19:39;98462.00;;;9.19;62.79
61035;BME280;46916;40.564;-7.958;2023-02-16T06:21:40;98455.34;;;9.28;62.81
61035;BME280;46916;40.564;-7.958;2023-02-16T06:23:40;98462.81;;;9.34;62.42
61035;BME280;46916;40.564;-7.958;2023-02-16T06:25:48;98454.78;;;9.37;62.23
61035;BME280;46916;40.564;-7.958;2023-02-16T06:27:50;98457.28;;;9.38;62.04
61035;BME280;46916;40.564;-7.958;2023-02-16T06:29:52;98457.38;;;9.37;62.34
61035;BME280;46916;40.564;-7.958;2023-02-16T06:31:52;98454.88;;;9.35;62.49
61035;BME280;46916;40.564;-7.958;2023-02-16T06:33:54;98459.28;;;9.35;62.17
61035;BME280;46916;40.564;-7.958;2023-02-16T06:35:56;98463.56;;;9.36;62.54
61035;BME280;46916;40.564;-7.958;2023-02-16T06:37:56;98458.41;;;9.34;62.24
61035;BME280;46916;40.564;-7.958;2023-02-16T06:39:58;98455.91;;;9.33;62.32
61035;BME280;46916;40.564;-7.958;2023-02-16T06:41:59;98462.50;;;9.38;62.09
61035;BME280;46916;40.564;-7.958;2023-02-16T06:44:02;98460.53;;;9.42;62.14
61035;BME280;46916;40.564;-7.958;2023-02-16T06:46:03;98461.00;;;9.49;62.22
61035;BME280;46916;40.564;-7.958;2023-02-16T06:48:03;98465.75;;;9.56;61.84
61035;BME280;46916;40.564;-7.958;2023-02-16T06:50:06;98460.09;;;9.62;61.76
61035;BME280;46916;40.564;-7.958;2023-02-16T06:52:08;98461.50;;;9.68;61.85
61035;BME280;46916;40.564;-7.958;2023-02-16T06:54:10;98462.88;;;9.74;61.57
61035;BME280;46916;40.564;-7.958;2023-02-16T06:56:11;98462.69;;;9.77;61.63
61035;BME280;46916;40.564;-7.958;2023-02-16T06:58:12;98462.38;;;9.81;61.52
61035;BME280;46916;40.564;-7.958;2023-02-16T07:00:13;98466.59;;;9.84;61.20
61035;BME280;46916;40.564;-7.958;2023-02-16T07:02:14;98462.91;;;9.86;61.09
61035;BME280;46916;40.564;-7.958;2023-02-16T07:04:14;98461.97;;;9.87;61.14
61035;BME280;46916;40.564;-7.958;2023-02-16T07:06:15;98458.53;;;9.87;60.97
61035;BME280;46916;40.564;-7.958;2023-02-16T07:08:16;98463.56;;;9.90;61.18
61035;BME280;46916;40.564;-7.958;2023-02-16T07:10:17;98468.69;;;9.91;61.00
61035;BME280;46916;40.564;-7.958;2023-02-16T07:12:17;98463.19;;;9.96;60.63
61035;BME280;46916;40.564;-7.958;2023-02-16T07:14:18;98467.47;;;9.97;60.63
61035;BME280;46916;40.564;-7.958;2023-02-16T07:16:19;98464.72;;;9.99;60.63
61035;BME280;46916;40.564;-7.958;2023-02-16T07:18:20;98464.09;;;9.95;60.91
61035;BME280;46916;40.564;-7.958;2023-02-16T07:20:21;98461.59;;;9.93;60.82
61035;BME280;46916;40.564;-7.958;2023-02-16T07:22:21;98472.78;;;9.96;60.88
61035;BME280;46916;40.564;-7.958;2023-02-16T07:24:22;98473.72;;;9.95;60.87
61035;BME280;46916;40.564;-7.958;2023-02-16T07:26:23;98473.84;;;9.93;60.94
61035;BME280;46916;40.564;-7.958;2023-02-16T07:28:24;98472.88;;;9.94;60.58
61035;BME280;46916;40.564;-7.958;2023-02-16T07:30:25;98473.72;;;9.95;60.61
61035;BME280;46916;40.564;-7.958;2023-02-16T07:32:27;98480.53;;;9.97;60.37
61035;BME280;46916;40.564;-7.958;2023-02-16T07:34:28;98484.09;;;9.96;60.28
61035;BME280;46916;40.564;-7.958;2023-02-16T07:36:29;98489.44;;;9.95;60.31
61035;BME280;46916;40.564;-7.958;2023-02-16T07:38:30;98486.31;;;10.02;60.40
61035;BME280;46916;40.564;-7.958;2023-02-16T07:40:30;98480.28;;;10.14;60.21
61035;BME280;46916;40.564;-7.958;2023-02-16T07:42:32;98488.09;;;10.29;60.20
61035;BME280;46916;40.564;-7.958;2023-02-16T07:44:33;98488.63;;;10.34;59.71
61035;BME280;46916;40.564;-7.958;2023-02-16T07:46:33;98478.84;;;10.36;59.62
61035;BME280;46916;40.564;-7.958;2023-02-16T07:48:34;98492.91;;;10.35;59.28
61035;BME280;46916;40.564;-7.958;2023-02-16T07:50:35;98491.03;;;10.37;59.38
61035;BME280;46916;40.564;-7.958;2023-02-16T07:52:37;98502.22;;;10.39;59.38
61035;BME280;46916;40.564;-7.958;2023-02-16T07:54:37;98502.34;;;10.37;59.07
61035;BME280;46916;40.564;-7.958;2023-02-16T07:56:38;98509.38;;;10.37;59.58
61035;BME280;46916;40.564;-7.958;2023-02-16T07:58:39;98512.72;;;10.39;59.01
61035;BME280;46916;40.564;-7.958;2023-02-16T08:00:39;98517.44;;;10.47;58.91
61035;BME280;46916;40.564;-7.958;2023-02-16T08:02:40;98508.25;;;10.54;58.97
61035;BME280;46916;40.564;-7.958;2023-02-16T08:04:41;98520.19;;;10.71;58.46
61035;BME280;46916;40.564;-7.958;2023-02-16T08:06:43;98521.03;;;10.84;58.15
61035;BME280;46916;40.564;-7.958;2023-02-16T08:08:45;98524.59;;;10.96;57.83
61035;BME280;46916;40.564;-7.958;2023-02-16T08:10:46;98522.16;;;11.05;57.84
61035;BME280;46916;40.564;-7.958;2023-02-16T08:12:46;98528.25;;;11.19;57.45
61035;BME280;46916;40.564;-7.958;2023-02-16T08:14:49;98525.50;;;11.33;56.90
61035;BME280;46916;40.564;-7.958;2023-02-16T08:16:50;98531.66;;;11.45;56.80
61035;BME280;46916;40.564;-7.958;2023-02-16T08:18:51;98528.06;;;11.58;56.25
61035;BME280;46916;40.564;-7.958;2023-02-16T08:20:52;98536.22;;;11.66;56.24
61035;BME280;46916;40.564;-7.958;2023-02-16T08:22:53;98537.66;;;11.83;55.87
61035;BME280;46916;40.564;-7.958;2023-02-16T08:24:54;98539.91;;;12.01;55.26
61035;BME280;46916;40.564;-7.958;2023-02-16T08:26:54;98540.81;;;12.12;54.93
61035;BME280;46916;40.564;-7.958;2023-02-16T08:28:56;98546.56;;;12.18;54.88
61035;BME280;46916;40.564;-7.958;2023-02-16T08:31:02;98551.34;;;12.24;54.78
61035;BME280;46916;40.564;-7.958;2023-02-16T08:33:02;98548.66;;;12.36;54.24
61035;BME280;46916;40.564;-7.958;2023-02-16T08:35:03;98545.72;;;12.52;53.95
61035;BME280;46916;40.564;-7.958;2023-02-16T08:37:04;98548.03;;;12.68;53.68
61035;BME280;46916;40.564;-7.958;2023-02-16T08:39:12;98548.91;;;12.80;53.44
61035;BME280;46916;40.564;-7.958;2023-02-16T08:41:14;98549.66;;;12.93;53.20
61035;BME280;46916;40.564;-7.958;2023-02-16T08:43:15;98552.06;;;13.07;53.43
61035;BME280;46916;40.564;-7.958;2023-02-16T08:45:16;98550.94;;;13.23;53.16
61035;BME280;46916;40.564;-7.958;2023-02-16T08:47:17;98557.88;;;13.35;52.66
61035;BME280;46916;40.564;-7.958;2023-02-16T08:49:21;98559.53;;;13.47;52.07
61035;BME280;46916;40.564;-7.958;2023-02-16T08:51:23;98560.34;;;13.59;51.83
61035;BME280;46916;40.564;-7.958;2023-02-16T08:53:24;98560.47;;;13.69;51.68
61035;BME280;46916;40.564;-7.958;2023-02-16T08:55:27;98568.34;;;13.80;51.19
61035;BME280;46916;40.564;-7.958;2023-02-16T08:57:28;98570.25;;;13.89;50.96
61035;BME280;46916;40.564;-7.958;2023-02-16T08:59:29;98567.84;;;13.97;50.88
61035;BME280;46916;40.564;-7.958;2023-02-16T09:01:30;98572.22;;;14.08;50.74
61035;BME280;46916;40.564;-7.958;2023-02-16T09:03:31;98567.16;;;14.16;50.16
61035;BME280;46916;40.564;-7.958;2023-02-16T09:05:32;98567.50;;;14.23;50.17
61035;BME280;46916;40.564;-7.958;2023-02-16T09:07:33;98565.22;;;14.29;49.79
61035;BME280;46916;40.564;-7.958;2023-02-16T09:09:34;98572.75;;;14.34;49.33
61035;BME280;46916;40.564;-7.958;2023-02-16T09:11:35;98569.00;;;14.36;49.50
61035;BME280;46916;40.564;-7.958;2023-02-16T09:13:37;98568.75;;;14.40;49.58
61035;BME280;46916;40.564;-7.958;2023-02-16T09:15:40;98563.50;;;14.40;49.59
61035;BME280;46916;40.564;-7.958;2023-02-16T09:17:42;98567.34;;;14.35;49.70
61035;BME280;46916;40.564;-7.958;2023-02-16T09:19:43;98566.50;;;14.35;49.56
61035;BME280;46916;40.564;-7.958;2023-02-16T09:21:45;98570.94;;;14.34;49.49
61035;BME280;46916;40.564;-7.958;2023-02-16T09:23:48;98569.78;;;14.27;49.49
61035;BME280;46916;40.564;-7.958;2023-02-16T09:25:49;98577.56;;;14.29;49.39
61035;BME280;46916;40.564;-7.958;2023-02-16T09:27:50;98573.81;;;14.31;49.49
61035;BME280;46916;40.564;-7.958;2023-02-16T09:29:50;98579.81;;;14.33;49.59
61035;BME280;46916;40.564;-7.958;2023-02-16T09:31:53;98575.88;;;14.28;48.66
61035;BME280;46916;40.564;-7.958;2023-02-16T09:33:59;98583.56;;;14.20;48.75
61035;BME280;46916;40.564;-7.958;2023-02-16T09:36:05;98587.56;;;14.03;49.38
61035;BME280;46916;40.564;-7.958;2023-02-16T09:38:06;98587.47;;;14.04;49.27
61035;BME280;46916;40.564;-7.958;2023-02-16T09:40:11;98583.03;;;14.05;49.50
61035;BME280;46916;40.564;-7.958;2023-02-16T09:42:28;98583.13;;;14.03;49.18
61035;BME280;46916;40.564;-7.958;2023-02-16T09:44:44;98587.94;;;13.98;49.37
61035;BME280;46916;40.564;-7.958;2023-02-16T09:46:48;98595.59;;;14.01;49.39
61035;BME280;46916;40.564;-7.958;2023-02-16T09:48:50;98591.75;;;14.05;49.41
61035;BME280;46916;40.564;-7.958;2023-02-16T09:50:52;98600.34;;;14.07;49.09
61035;BME280;46916;40.564;-7.958;2023-02-16T09:53:02;98600.94;;;14.11;48.12
61035;BME280;46916;40.564;-7.958;2023-02-16T09:55:16;98594.91;;;13.77;49.15
61035;BME280;46916;40.564;-7.958;2023-02-16T10:04:42;98586.88;;;13.67;49.08
61035;BME280;46916;40.564;-7.958;2023-02-16T10:09:24;98581.53;;;13.80;49.95
61035;BME280;46916;40.564;-7.958;2023-02-16T10:11:30;98587.25;;;13.85;50.02
61035;BME280;46916;40.564;-7.958;2023-02-16T10:13:47;98588.19;;;13.95;49.93
61035;BME280;46916;40.564;-7.958;2023-02-16T10:15:55;98599.28;;;14.10;49.28
61035;BME280;46916;40.564;-7.958;2023-02-16T10:17:58;98591.47;;;14.20;48.65
61035;BME280;46916;40.564;-7.958;2023-02-16T10:22:30;98590.75;;;14.29;48.10
61035;BME280;46916;40.564;-7.958;2023-02-16T10:24:41;98588.66;;;14.32;48.49
61035;BME280;46916;40.564;-7.958;2023-02-16T10:26:50;98588.88;;;14.41;48.68
61035;BME280;46916;40.564;-7.958;2023-02-16T10:29:05;98588.03;;;14.51;48.61
61035;BME280;46916;40.564;-7.958;2023-02-16T10:33:42;98582.28;;;14.78;48.17
61035;BME280;46916;40.564;-7.958;2023-02-16T10:35:49;98587.47;;;14.90;48.20
61035;BME280;46916;40.564;-7.958;2023-02-16T10:42:28;98579.41;;;15.33;47.38
61035;BME280;46916;40.564;-7.958;2023-02-16T10:44:35;98588.22;;;15.43;47.25
61035;BME280;46916;40.564;-7.958;2023-02-16T10:46:43;98584.22;;;15.49;46.94
61035;BME280;46916;40.564;-7.958;2023-02-16T10:48:45;98588.25;;;15.53;47.28
61035;BME280;46916;40.564;-7.958;2023-02-16T10:51:00;98586.63;;;15.61;47.01
61035;BME280;46916;40.564;-7.958;2023-02-16T10:53:08;98588.78;;;15.68;46.50
61035;BME280;46916;40.564;-7.958;2023-02-16T10:55:11;98585.16;;;15.78;46.25
61035;BME280;46916;40.564;-7.958;2023-02-16T10:57:24;98582.41;;;15.80;46.21
61035;BME280;46916;40.564;-7.958;2023-02-16T10:59:43;98579.38;;;15.84;46.01
61035;BME280;46916;40.564;-7.958;2023-02-16T11:04:39;98583.13;;;15.92;45.78
61035;BME280;46916;40.564;-7.958;2023-02-16T11:06:40;98585.22;;;15.98;45.61
61035;BME280;46916;40.564;-7.958;2023-02-16T11:08:49;98586.06;;;15.98;45.72
61035;BME280;46916;40.564;-7.958;2023-02-16T11:10:52;98583.84;;;16.03;45.34
61035;BME280;46916;40.564;-7.958;2023-02-16T11:12:55;98584.00;;;16.12;45.45
61035;BME280;46916;40.564;-7.958;2023-02-16T11:15:18;98583.47;;;16.18;45.50
61035;BME280;46916;40.564;-7.958;2023-02-16T11:17:22;98584.72;;;16.23;45.10
61035;BME280;46916;40.564;-7.958;2023-02-16T11:19:24;98586.81;;;16.29;44.75
61035;BME280;46916;40.564;-7.958;2023-02-16T11:21:51;98586.13;;;16.37;44.95
61035;BME280;46916;40.564;-7.958;2023-02-16T11:23:58;98594.06;;;16.37;44.45
61035;BME280;46916;40.564;-7.958;2023-02-16T11:28:15;98585.84;;;16.40;44.35
61035;BME280;46916;40.564;-7.958;2023-02-16T11:30:29;98587.38;;;16.43;44.23
61035;BME280;46916;40.564;-7.958;2023-02-16T11:32:32;98583.06;;;16.51;44.15
61035;BME280;46916;40.564;-7.958;2023-02-16T11:36:39;98586.81;;;16.58;44.29
61035;BME280;46916;40.564;-7.958;2023-02-16T11:38:40;98581.94;;;16.64;43.15
61035;BME280;46916;40.564;-7.958;2023-02-16T11:40:50;98579.16;;;16.65;42.66
61035;BME280;46916;40.564;-7.958;2023-02-16T11:42:57;98578.91;;;16.78;41.60
61035;BME280;46916;40.564;-7.958;2023-02-16T11:45:00;98585.97;;;16.68;41.63
61035;BME280;46916;40.564;-7.958;2023-02-16T11:47:19;98578.22;;;16.76;41.63